sensor_id;sensor_type;location;lat;lon;timestamp;temperature;humidity
76291;DHT22;65100;46.884;17.410;2023-07-30T00:00:12;21.28;77.62
76291;DHT22;65100;46.884;17.410;2023-07-30T00:02:37;21.18;77.64
76291;DHT22;65100;46.884;17.410;2023-07-30T00:05:03;21.14;77.69
76291;DHT22;65100;46.884;17.410;2023-07-30T00:07:29;21.17;77.31
76291;DHT22;65100;46.884;17.410;2023-07-30T00:09:54;21.30;76.49
76291;DHT22;65100;46.884;17.410;2023-07-30T00:12:19;21.30;76.28
76291;DHT22;65100;46.884;17.410;2023-07-30T00:14:45;21.18;76.20
76291;DHT22;65100;46.884;17.410;2023-07-30T00:17:10;21.10;76.95
76291;DHT22;65100;46.884;17.410;2023-07-30T00:19:36;21.11;76.92
76291;DHT22;65100;46.884;17.410;2023-07-30T00:22:01;21.14;76.18
76291;DHT22;65100;46.884;17.410;2023-07-30T00:24:26;21.24;76.11
76291;DHT22;65100;46.884;17.410;2023-07-30T00:26:52;21.24;76.34
76291;DHT22;65100;46.884;17.410;2023-07-30T00:29:17;21.38;75.78
76291;DHT22;65100;46.884;17.410;2023-07-30T00:31:43;21.23;76.68
76291;DHT22;65100;46.884;17.410;2023-07-30T00:34:08;21.00;77.27
76291;DHT22;65100;46.884;17.410;2023-07-30T00:36:34;21.10;77.06
76291;DHT22;65100;46.884;17.410;2023-07-30T00:38:59;21.17;76.96
76291;DHT22;65100;46.884;17.410;2023-07-30T00:41:25;20.98;78.26
76291;DHT22;65100;46.884;17.410;2023-07-30T00:43:50;21.18;77.27
76291;DHT22;65100;46.884;17.410;2023-07-30T00:46:16;21.17;77.44
76291;DHT22;65100;46.884;17.410;2023-07-30T00:48:41;21.45;75.76
76291;DHT22;65100;46.884;17.410;2023-07-30T00:51:09;21.21;76.06
76291;DHT22;65100;46.884;17.410;2023-07-30T00:53:36;21.24;76.30
76291;DHT22;65100;46.884;17.410;2023-07-30T00:56:03;21.27;76.05
76291;DHT22;65100;46.884;17.410;2023-07-30T00:58:28;21.24;76.09
76291;DHT22;65100;46.884;17.410;2023-07-30T01:00:54;21.28;76.08
76291;DHT22;65100;46.884;17.410;2023-07-30T01:03:20;21.24;76.54
76291;DHT22;65100;46.884;17.410;2023-07-30T01:05:46;21.21;76.80
76291;DHT22;65100;46.884;17.410;2023-07-30T01:08:11;21.31;76.27
76291;DHT22;65100;46.884;17.410;2023-07-30T01:10:38;21.11;76.74
76291;DHT22;65100;46.884;17.410;2023-07-30T01:13:06;21.21;76.59
76291;DHT22;65100;46.884;17.410;2023-07-30T01:15:33;21.04;77.67
76291;DHT22;65100;46.884;17.410;2023-07-30T01:17:58;21.38;76.35
76291;DHT22;65100;46.884;17.410;2023-07-30T01:20:24;21.20;76.44
76291;DHT22;65100;46.884;17.410;2023-07-30T01:22:49;21.01;77.18
76291;DHT22;65100;46.884;17.410;2023-07-30T01:25:16;21.01;77.63
76291;DHT22;65100;46.884;17.410;2023-07-30T01:27:48;20.94;78.35
76291;DHT22;65100;46.884;17.410;2023-07-30T01:30:26;20.87;78.64
76291;DHT22;65100;46.884;17.410;2023-07-30T01:32:53;20.91;78.12
76291;DHT22;65100;46.884;17.410;2023-07-30T01:35:26;20.94;78.38
76291;DHT22;65100;46.884;17.410;2023-07-30T01:37:52;20.81;78.97
76291;DHT22;65100;46.884;17.410;2023-07-30T01:40:18;20.79;78.61
76291;DHT22;65100;46.884;17.410;2023-07-30T01:42:44;20.74;79.05
76291;DHT22;65100;46.884;17.410;2023-07-30T01:45:09;20.80;79.19
76291;DHT22;65100;46.884;17.410;2023-07-30T01:47:35;20.60;79.09
76291;DHT22;65100;46.884;17.410;2023-07-30T01:50:00;20.79;78.07
76291;DHT22;65100;46.884;17.410;2023-07-30T01:52:26;21.10;77.65
76291;DHT22;65100;46.884;17.410;2023-07-30T01:54:51;21.21;77.22
76291;DHT22;65100;46.884;17.410;2023-07-30T01:57:17;21.10;78.15
76291;DHT22;65100;46.884;17.410;2023-07-30T01:59:42;20.92;78.99
76291;DHT22;65100;46.884;17.410;2023-07-30T02:02:08;20.73;79.83
76291;DHT22;65100;46.884;17.410;2023-07-30T02:04:33;20.56;80.46
76291;DHT22;65100;46.884;17.410;2023-07-30T02:06:59;20.97;79.17
76291;DHT22;65100;46.884;17.410;2023-07-30T02:09:24;20.67;79.50
76291;DHT22;65100;46.884;17.410;2023-07-30T02:11:50;20.84;79.00
76291;DHT22;65100;46.884;17.410;2023-07-30T02:14:20;21.04;78.76
76291;DHT22;65100;46.884;17.410;2023-07-30T02:16:45;21.15;78.87
76291;DHT22;65100;46.884;17.410;2023-07-30T02:19:11;21.00;79.30
76291;DHT22;65100;46.884;17.410;2023-07-30T02:21:36;20.94;79.32
76291;DHT22;65100;46.884;17.410;2023-07-30T02:24:04;20.83;79.96
76291;DHT22;65100;46.884;17.410;2023-07-30T02:26:29;20.67;80.74
76291;DHT22;65100;46.884;17.410;2023-07-30T02:28:55;20.39;81.21
76291;DHT22;65100;46.884;17.410;2023-07-30T02:31:20;20.61;80.80
76291;DHT22;65100;46.884;17.410;2023-07-30T02:33:46;20.50;81.17
76291;DHT22;65100;46.884;17.410;2023-07-30T02:36:11;20.51;81.26
76291;DHT22;65100;46.884;17.410;2023-07-30T02:38:37;20.61;80.90
76291;DHT22;65100;46.884;17.410;2023-07-30T02:41:02;20.66;80.76
76291;DHT22;65100;46.884;17.410;2023-07-30T02:43:28;20.53;81.19
76291;DHT22;65100;46.884;17.410;2023-07-30T02:45:53;20.69;80.77
76291;DHT22;65100;46.884;17.410;2023-07-30T02:48:18;20.56;81.41
76291;DHT22;65100;46.884;17.410;2023-07-30T02:50:44;20.66;81.44
76291;DHT22;65100;46.884;17.410;2023-07-30T02:53:10;20.64;81.39
76291;DHT22;65100;46.884;17.410;2023-07-30T02:55:35;20.61;81.24
76291;DHT22;65100;46.884;17.410;2023-07-30T02:58:01;20.39;82.04
76291;DHT22;65100;46.884;17.410;2023-07-30T03:00:26;20.44;82.06
76291;DHT22;65100;46.884;17.410;2023-07-30T03:02:52;20.36;82.12
76291;DHT22;65100;46.884;17.410;2023-07-30T03:05:17;20.39;81.50
76291;DHT22;65100;46.884;17.410;2023-07-30T03:07:43;20.44;81.15
76291;DHT22;65100;46.884;17.410;2023-07-30T03:10:09;20.23;82.23
76291;DHT22;65100;46.884;17.410;2023-07-30T03:12:34;20.40;81.68
76291;DHT22;65100;46.884;17.410;2023-07-30T03:15:00;20.36;81.93
76291;DHT22;65100;46.884;17.410;2023-07-30T03:17:25;20.51;81.47
76291;DHT22;65100;46.884;17.410;2023-07-30T03:19:50;20.67;81.29
76291;DHT22;65100;46.884;17.410;2023-07-30T03:22:16;20.76;81.07
76291;DHT22;65100;46.884;17.410;2023-07-30T03:24:41;20.70;80.92
76291;DHT22;65100;46.884;17.410;2023-07-30T03:27:07;20.76;80.75
76291;DHT22;65100;46.884;17.410;2023-07-30T03:29:32;20.61;80.87
76291;DHT22;65100;46.884;17.410;2023-07-30T03:31:58;20.43;81.66
76291;DHT22;65100;46.884;17.410;2023-07-30T03:34:23;20.41;81.53
76291;DHT22;65100;46.884;17.410;2023-07-30T03:36:48;20.19;82.15
76291;DHT22;65100;46.884;17.410;2023-07-30T03:39:14;20.26;81.77
76291;DHT22;65100;46.884;17.410;2023-07-30T03:41:39;19.82;83.39
76291;DHT22;65100;46.884;17.410;2023-07-30T03:44:05;19.93;83.10
76291;DHT22;65100;46.884;17.410;2023-07-30T03:46:30;20.40;81.46
76291;DHT22;65100;46.884;17.410;2023-07-30T03:48:56;20.30;81.42
76291;DHT22;65100;46.884;17.410;2023-07-30T03:51:21;20.58;80.74
76291;DHT22;65100;46.884;17.410;2023-07-30T03:53:47;20.54;80.19
76291;DHT22;65100;46.884;17.410;2023-07-30T03:56:12;20.29;81.39
76291;DHT22;65100;46.884;17.410;2023-07-30T03:58:38;20.17;81.67
76291;DHT22;65100;46.884;17.410;2023-07-30T04:01:03;20.39;81.31
76291;DHT22;65100;46.884;17.410;2023-07-30T04:03:29;20.44;81.33
76291;DHT22;65100;46.884;17.410;2023-07-30T04:05:54;20.53;81.29
76291;DHT22;65100;46.884;17.410;2023-07-30T04:08:19;20.76;81.10
76291;DHT22;65100;46.884;17.410;2023-07-30T04:10:46;20.81;81.09
76291;DHT22;65100;46.884;17.410;2023-07-30T04:13:11;20.84;80.78
76291;DHT22;65100;46.884;17.410;2023-07-30T04:15:37;20.76;80.72
76291;DHT22;65100;46.884;17.410;2023-07-30T04:18:02;20.81;81.01
76291;DHT22;65100;46.884;17.410;2023-07-30T04:20:28;20.79;81.07
76291;DHT22;65100;46.884;17.410;2023-07-30T04:22:53;20.76;80.97
76291;DHT22;65100;46.884;17.410;2023-07-30T04:25:19;20.73;81.07
76291;DHT22;65100;46.884;17.410;2023-07-30T04:27:44;20.76;81.11
76291;DHT22;65100;46.884;17.410;2023-07-30T04:30:10;20.77;81.10
76291;DHT22;65100;46.884;17.410;2023-07-30T04:32:36;20.76;81.05
76291;DHT22;65100;46.884;17.410;2023-07-30T04:35:01;20.71;81.29
76291;DHT22;65100;46.884;17.410;2023-07-30T04:37:28;20.56;81.54
76291;DHT22;65100;46.884;17.410;2023-07-30T04:39:53;20.57;81.25
76291;DHT22;65100;46.884;17.410;2023-07-30T04:42:19;20.61;80.81
76291;DHT22;65100;46.884;17.410;2023-07-30T04:44:44;20.81;81.31
76291;DHT22;65100;46.884;17.410;2023-07-30T04:47:10;20.81;81.78
76291;DHT22;65100;46.884;17.410;2023-07-30T04:49:35;20.61;82.43
76291;DHT22;65100;46.884;17.410;2023-07-30T04:52:03;20.44;83.79
76291;DHT22;65100;46.884;17.410;2023-07-30T04:54:28;20.58;83.70
76291;DHT22;65100;46.884;17.410;2023-07-30T04:56:54;20.64;83.89
76291;DHT22;65100;46.884;17.410;2023-07-30T04:59:19;20.56;84.58
76291;DHT22;65100;46.884;17.410;2023-07-30T05:01:44;20.34;86.79
76291;DHT22;65100;46.884;17.410;2023-07-30T05:04:10;20.27;87.24
76291;DHT22;65100;46.884;17.410;2023-07-30T05:06:35;20.29;86.19
76291;DHT22;65100;46.884;17.410;2023-07-30T05:09:01;20.26;85.85
76291;DHT22;65100;46.884;17.410;2023-07-30T05:11:26;20.20;86.05
76291;DHT22;65100;46.884;17.410;2023-07-30T05:13:52;20.05;86.57
76291;DHT22;65100;46.884;17.410;2023-07-30T05:16:17;19.85;87.61
76291;DHT22;65100;46.884;17.410;2023-07-30T05:18:43;19.68;88.62
76291;DHT22;65100;46.884;17.410;2023-07-30T05:21:08;19.73;89.12
76291;DHT22;65100;46.884;17.410;2023-07-30T05:23:34;19.66;89.25
76291;DHT22;65100;46.884;17.410;2023-07-30T05:25:59;19.81;88.97
76291;DHT22;65100;46.884;17.410;2023-07-30T05:28:25;19.97;88.62
76291;DHT22;65100;46.884;17.410;2023-07-30T05:30:51;19.83;88.80
76291;DHT22;65100;46.884;17.410;2023-07-30T05:33:16;19.82;88.79
76291;DHT22;65100;46.884;17.410;2023-07-30T05:35:42;19.58;90.07
76291;DHT22;65100;46.884;17.410;2023-07-30T05:38:07;19.63;89.55
76291;DHT22;65100;46.884;17.410;2023-07-30T05:40:35;19.71;88.62
76291;DHT22;65100;46.884;17.410;2023-07-30T05:43:00;19.72;87.91
76291;DHT22;65100;46.884;17.410;2023-07-30T05:45:26;19.39;90.13
76291;DHT22;65100;46.884;17.410;2023-07-30T05:47:51;19.48;90.13
76291;DHT22;65100;46.884;17.410;2023-07-30T05:50:17;19.61;90.11
76291;DHT22;65100;46.884;17.410;2023-07-30T05:52:42;19.59;88.98
76291;DHT22;65100;46.884;17.410;2023-07-30T05:55:08;19.44;89.99
76291;DHT22;65100;46.884;17.410;2023-07-30T05:57:33;19.59;90.09
76291;DHT22;65100;46.884;17.410;2023-07-30T05:59:59;19.87;89.52
76291;DHT22;65100;46.884;17.410;2023-07-30T06:02:24;19.79;89.29
76291;DHT22;65100;46.884;17.410;2023-07-30T06:04:50;19.71;89.10
76291;DHT22;65100;46.884;17.410;2023-07-30T06:07:15;19.61;90.97
76291;DHT22;65100;46.884;17.410;2023-07-30T06:09:41;19.73;91.41
76291;DHT22;65100;46.884;17.410;2023-07-30T06:12:07;19.89;90.09
76291;DHT22;65100;46.884;17.410;2023-07-30T06:14:32;20.12;88.86
76291;DHT22;65100;46.884;17.410;2023-07-30T06:16:57;20.25;88.51
76291;DHT22;65100;46.884;17.410;2023-07-30T06:19:23;20.00;89.60
76291;DHT22;65100;46.884;17.410;2023-07-30T06:21:48;19.89;91.25
76291;DHT22;65100;46.884;17.410;2023-07-30T06:24:14;19.93;91.02
76291;DHT22;65100;46.884;17.410;2023-07-30T06:26:39;20.09;89.82
76291;DHT22;65100;46.884;17.410;2023-07-30T06:29:05;20.19;89.70
76291;DHT22;65100;46.884;17.410;2023-07-30T06:31:31;20.27;89.53
76291;DHT22;65100;46.884;17.410;2023-07-30T06:33:56;20.27;89.07
76291;DHT22;65100;46.884;17.410;2023-07-30T06:36:21;20.06;90.06
76291;DHT22;65100;46.884;17.410;2023-07-30T06:38:47;19.93;90.67
76291;DHT22;65100;46.884;17.410;2023-07-30T06:41:13;20.02;89.93
76291;DHT22;65100;46.884;17.410;2023-07-30T06:43:38;20.08;89.82
76291;DHT22;65100;46.884;17.410;2023-07-30T06:46:04;20.15;89.91
76291;DHT22;65100;46.884;17.410;2023-07-30T06:48:30;20.27;89.26
76291;DHT22;65100;46.884;17.410;2023-07-30T06:50:55;20.15;89.34
76291;DHT22;65100;46.884;17.410;2023-07-30T06:53:20;20.13;89.66
76291;DHT22;65100;46.884;17.410;2023-07-30T06:56:07;20.25;89.19
76291;DHT22;65100;46.884;17.410;2023-07-30T06:58:32;20.44;88.64
76291;DHT22;65100;46.884;17.410;2023-07-30T07:00:58;20.50;88.27
76291;DHT22;65100;46.884;17.410;2023-07-30T07:03:44;20.56;87.43
76291;DHT22;65100;46.884;17.410;2023-07-30T07:06:30;20.57;87.60
76291;DHT22;65100;46.884;17.410;2023-07-30T07:08:55;20.37;88.09
76291;DHT22;65100;46.884;17.410;2023-07-30T07:11:21;20.30;89.42
76291;DHT22;65100;46.884;17.410;2023-07-30T07:13:46;20.29;89.66
76291;DHT22;65100;46.884;17.410;2023-07-30T07:16:11;20.16;90.17
76291;DHT22;65100;46.884;17.410;2023-07-30T07:18:37;20.08;89.60
76291;DHT22;65100;46.884;17.410;2023-07-30T07:21:02;20.27;89.18
76291;DHT22;65100;46.884;17.410;2023-07-30T07:23:28;20.36;88.88
76291;DHT22;65100;46.884;17.410;2023-07-30T07:25:53;20.46;87.84
76291;DHT22;65100;46.884;17.410;2023-07-30T07:28:19;20.36;88.23
76291;DHT22;65100;46.884;17.410;2023-07-30T07:30:44;20.25;88.01
76291;DHT22;65100;46.884;17.410;2023-07-30T07:33:10;20.26;88.22
76291;DHT22;65100;46.884;17.410;2023-07-30T07:35:39;20.37;86.88
76291;DHT22;65100;46.884;17.410;2023-07-30T07:38:05;20.13;88.27
76291;DHT22;65100;46.884;17.410;2023-07-30T07:40:30;20.05;88.53
76291;DHT22;65100;46.884;17.410;2023-07-30T07:42:57;19.82;89.76
76291;DHT22;65100;46.884;17.410;2023-07-30T07:45:22;20.03;88.83
76291;DHT22;65100;46.884;17.410;2023-07-30T07:47:47;19.90;89.61
76291;DHT22;65100;46.884;17.410;2023-07-30T07:50:13;20.02;89.81
76291;DHT22;65100;46.884;17.410;2023-07-30T07:52:39;20.03;90.93
76291;DHT22;65100;46.884;17.410;2023-07-30T07:55:05;20.10;90.75
76291;DHT22;65100;46.884;17.410;2023-07-30T07:57:30;20.17;89.60
76291;DHT22;65100;46.884;17.410;2023-07-30T07:59:56;20.12;89.57
76291;DHT22;65100;46.884;17.410;2023-07-30T08:02:22;19.54;91.86
76291;DHT22;65100;46.884;17.410;2023-07-30T08:04:48;19.71;92.97
76291;DHT22;65100;46.884;17.410;2023-07-30T08:07:13;19.59;94.45
76291;DHT22;65100;46.884;17.410;2023-07-30T08:09:38;19.55;96.04
76291;DHT22;65100;46.884;17.410;2023-07-30T08:12:04;19.54;96.19
76291;DHT22;65100;46.884;17.410;2023-07-30T08:14:30;19.59;96.03
76291;DHT22;65100;46.884;17.410;2023-07-30T08:16:56;19.55;95.41
76291;DHT22;65100;46.884;17.410;2023-07-30T08:19:22;19.55;94.65
76291;DHT22;65100;46.884;17.410;2023-07-30T08:21:47;19.66;93.93
76291;DHT22;65100;46.884;17.410;2023-07-30T08:24:12;19.51;93.78
76291;DHT22;65100;46.884;17.410;2023-07-30T08:26:38;19.41;94.26
76291;DHT22;65100;46.884;17.410;2023-07-30T08:29:03;19.57;95.37
76291;DHT22;65100;46.884;17.410;2023-07-30T08:31:31;19.89;95.10
76291;DHT22;65100;46.884;17.410;2023-07-30T08:33:56;19.93;94.50
76291;DHT22;65100;46.884;17.410;2023-07-30T08:36:22;19.73;94.99
76291;DHT22;65100;46.884;17.410;2023-07-30T08:38:47;19.93;95.41
76291;DHT22;65100;46.884;17.410;2023-07-30T08:41:13;20.03;94.41
76291;DHT22;65100;46.884;17.410;2023-07-30T08:43:38;20.09;94.49
76291;DHT22;65100;46.884;17.410;2023-07-30T08:46:04;20.15;94.14
76291;DHT22;65100;46.884;17.410;2023-07-30T08:48:29;20.13;94.69
76291;DHT22;65100;46.884;17.410;2023-07-30T08:50:58;20.05;94.92
76291;DHT22;65100;46.884;17.410;2023-07-30T08:53:25;20.02;95.28
76291;DHT22;65100;46.884;17.410;2023-07-30T08:55:53;19.96;94.65
76291;DHT22;65100;46.884;17.410;2023-07-30T08:58:19;20.08;92.63
76291;DHT22;65100;46.884;17.410;2023-07-30T09:00:47;20.23;92.14
76291;DHT22;65100;46.884;17.410;2023-07-30T09:03:15;20.17;92.46
76291;DHT22;65100;46.884;17.410;2023-07-30T09:05:43;20.22;92.94
76291;DHT22;65100;46.884;17.410;2023-07-30T09:08:09;20.15;93.39
76291;DHT22;65100;46.884;17.410;2023-07-30T09:10:35;20.12;93.93
76291;DHT22;65100;46.884;17.410;2023-07-30T09:13:02;20.43;94.16
76291;DHT22;65100;46.884;17.410;2023-07-30T09:15:36;20.79;92.97
76291;DHT22;65100;46.884;17.410;2023-07-30T09:18:05;20.81;91.84
76291;DHT22;65100;46.884;17.410;2023-07-30T09:20:41;20.92;92.13
76291;DHT22;65100;46.884;17.410;2023-07-30T09:23:08;21.00;91.47
76291;DHT22;65100;46.884;17.410;2023-07-30T09:25:35;20.98;91.69
76291;DHT22;65100;46.884;17.410;2023-07-30T09:28:00;21.00;92.53
76291;DHT22;65100;46.884;17.410;2023-07-30T09:30:26;21.07;91.65
76291;DHT22;65100;46.884;17.410;2023-07-30T09:32:56;21.12;90.80
76291;DHT22;65100;46.884;17.410;2023-07-30T09:35:24;21.07;91.86
76291;DHT22;65100;46.884;17.410;2023-07-30T09:38:03;21.11;90.64
76291;DHT22;65100;46.884;17.410;2023-07-30T09:40:36;21.10;91.19
76291;DHT22;65100;46.884;17.410;2023-07-30T09:43:03;21.27;90.98
76291;DHT22;65100;46.884;17.410;2023-07-30T09:45:33;21.05;91.31
76291;DHT22;65100;46.884;17.410;2023-07-30T09:48:02;21.25;91.41
76291;DHT22;65100;46.884;17.410;2023-07-30T09:50:28;21.24;90.86
76291;DHT22;65100;46.884;17.410;2023-07-30T09:52:54;21.34;91.91
76291;DHT22;65100;46.884;17.410;2023-07-30T09:55:19;21.46;90.96
76291;DHT22;65100;46.884;17.410;2023-07-30T09:57:46;21.65;90.19
76291;DHT22;65100;46.884;17.410;2023-07-30T10:00:12;21.58;89.43
76291;DHT22;65100;46.884;17.410;2023-07-30T10:02:41;21.65;89.46
76291;DHT22;65100;46.884;17.410;2023-07-30T10:05:33;21.42;88.74
76291;DHT22;65100;46.884;17.410;2023-07-30T10:08:09;21.54;89.19
76291;DHT22;65100;46.884;17.410;2023-07-30T10:10:36;21.54;90.01
76291;DHT22;65100;46.884;17.410;2023-07-30T10:13:06;21.49;89.90
76291;DHT22;65100;46.884;17.410;2023-07-30T10:15:38;21.77;89.12
76291;DHT22;65100;46.884;17.410;2023-07-30T10:18:04;22.02;87.34
76291;DHT22;65100;46.884;17.410;2023-07-30T10:20:31;22.35;86.54
76291;DHT22;65100;46.884;17.410;2023-07-30T10:22:58;22.59;86.82
76291;DHT22;65100;46.884;17.410;2023-07-30T10:28:08;22.80;86.73
76291;DHT22;65100;46.884;17.410;2023-07-30T10:30:34;23.04;85.33
76291;DHT22;65100;46.884;17.410;2023-07-30T10:33:02;23.10;84.98
76291;DHT22;65100;46.884;17.410;2023-07-30T10:35:41;22.90;84.95
76291;DHT22;65100;46.884;17.410;2023-07-30T10:38:19;22.97;83.74
76291;DHT22;65100;46.884;17.410;2023-07-30T10:41:15;23.25;83.86
76291;DHT22;65100;46.884;17.410;2023-07-30T10:43:47;23.59;83.99
76291;DHT22;65100;46.884;17.410;2023-07-30T10:46:15;23.66;83.14
76291;DHT22;65100;46.884;17.410;2023-07-30T10:48:42;23.69;82.53
76291;DHT22;65100;46.884;17.410;2023-07-30T10:51:10;23.75;80.68
76291;DHT22;65100;46.884;17.410;2023-07-30T10:53:36;23.85;79.89
76291;DHT22;65100;46.884;17.410;2023-07-30T10:56:06;23.95;79.12
76291;DHT22;65100;46.884;17.410;2023-07-30T10:58:33;23.98;75.90
76291;DHT22;65100;46.884;17.410;2023-07-30T11:01:02;23.94;75.22
76291;DHT22;65100;46.884;17.410;2023-07-30T11:03:28;24.01;77.91
76291;DHT22;65100;46.884;17.410;2023-07-30T11:05:54;23.99;75.48
76291;DHT22;65100;46.884;17.410;2023-07-30T11:08:36;23.95;73.82
76291;DHT22;65100;46.884;17.410;2023-07-30T11:11:02;24.12;77.26
76291;DHT22;65100;46.884;17.410;2023-07-30T11:13:28;23.81;74.42
76291;DHT22;65100;46.884;17.410;2023-07-30T11:15:53;24.19;75.78
76291;DHT22;65100;46.884;17.410;2023-07-30T11:18:19;24.48;76.67
76291;DHT22;65100;46.884;17.410;2023-07-30T11:20:44;24.62;73.92
76291;DHT22;65100;46.884;17.410;2023-07-30T11:23:23;24.93;76.89
76291;DHT22;65100;46.884;17.410;2023-07-30T11:25:49;24.63;75.11
76291;DHT22;65100;46.884;17.410;2023-07-30T11:28:39;24.77;76.82
76291;DHT22;65100;46.884;17.410;2023-07-30T11:31:10;24.87;73.69
76291;DHT22;65100;46.884;17.410;2023-07-30T11:33:39;24.82;75.29
76291;DHT22;65100;46.884;17.410;2023-07-30T11:36:07;24.80;76.07
76291;DHT22;65100;46.884;17.410;2023-07-30T11:38:34;24.70;73.01
76291;DHT22;65100;46.884;17.410;2023-07-30T11:41:00;24.59;73.89
76291;DHT22;65100;46.884;17.410;2023-07-30T11:43:26;24.67;76.17
76291;DHT22;65100;46.884;17.410;2023-07-30T11:46:14;24.63;73.80
76291;DHT22;65100;46.884;17.410;2023-07-30T11:48:42;25.06;75.49
76291;DHT22;65100;46.884;17.410;2023-07-30T11:51:18;25.27;73.57
76291;DHT22;65100;46.884;17.410;2023-07-30T11:53:49;25.26;74.07
76291;DHT22;65100;46.884;17.410;2023-07-30T11:56:19;25.02;71.95
76291;DHT22;65100;46.884;17.410;2023-07-30T11:58:47;24.93;75.15
76291;DHT22;65100;46.884;17.410;2023-07-30T12:01:16;25.02;74.45
76291;DHT22;65100;46.884;17.410;2023-07-30T12:03:42;24.76;73.68
76291;DHT22;65100;46.884;17.410;2023-07-30T12:06:11;24.64;76.56
76291;DHT22;65100;46.884;17.410;2023-07-30T12:08:37;24.80;75.05
76291;DHT22;65100;46.884;17.410;2023-07-30T12:11:04;24.91;74.43
76291;DHT22;65100;46.884;17.410;2023-07-30T12:13:30;25.28;71.33
76291;DHT22;65100;46.884;17.410;2023-07-30T12:15:56;25.34;70.05
76291;DHT22;65100;46.884;17.410;2023-07-30T12:18:23;25.21;69.37
76291;DHT22;65100;46.884;17.410;2023-07-30T12:20:49;25.38;70.24
76291;DHT22;65100;46.884;17.410;2023-07-30T12:23:16;25.62;69.53
76291;DHT22;65100;46.884;17.410;2023-07-30T12:25:42;25.94;68.21
76291;DHT22;65100;46.884;17.410;2023-07-30T12:28:07;25.68;69.24
76291;DHT22;65100;46.884;17.410;2023-07-30T12:30:33;25.77;66.95
76291;DHT22;65100;46.884;17.410;2023-07-30T12:32:58;26.09;69.67
76291;DHT22;65100;46.884;17.410;2023-07-30T12:35:24;25.86;67.37
76291;DHT22;65100;46.884;17.410;2023-07-30T12:37:49;26.05;65.06
76291;DHT22;65100;46.884;17.410;2023-07-30T12:40:16;25.89;68.52
76291;DHT22;65100;46.884;17.410;2023-07-30T12:42:42;25.95;67.92
76291;DHT22;65100;46.884;17.410;2023-07-30T12:45:07;26.08;65.37
76291;DHT22;65100;46.884;17.410;2023-07-30T12:47:33;26.33;65.36
76291;DHT22;65100;46.884;17.410;2023-07-30T12:50:01;26.56;66.96
76291;DHT22;65100;46.884;17.410;2023-07-30T12:52:27;26.62;67.18
76291;DHT22;65100;46.884;17.410;2023-07-30T12:54:52;26.76;65.52
76291;DHT22;65100;46.884;17.410;2023-07-30T12:57:18;26.86;65.75
76291;DHT22;65100;46.884;17.410;2023-07-30T12:59:43;26.96;66.64
76291;DHT22;65100;46.884;17.410;2023-07-30T13:02:09;26.94;65.16
76291;DHT22;65100;46.884;17.410;2023-07-30T13:04:34;26.79;64.60
76291;DHT22;65100;46.884;17.410;2023-07-30T13:06:59;26.70;69.30
76291;DHT22;65100;46.884;17.410;2023-07-30T13:09:25;26.94;68.52
76291;DHT22;65100;46.884;17.410;2023-07-30T13:11:50;26.26;66.76
76291;DHT22;65100;46.884;17.410;2023-07-30T13:14:16;26.52;70.58
76291;DHT22;65100;46.884;17.410;2023-07-30T13:16:41;26.35;69.02
76291;DHT22;65100;46.884;17.410;2023-07-30T13:19:07;26.57;68.87
76291;DHT22;65100;46.884;17.410;2023-07-30T13:21:32;26.82;69.57
76291;DHT22;65100;46.884;17.410;2023-07-30T13:23:58;26.40;67.12
76291;DHT22;65100;46.884;17.410;2023-07-30T13:26:23;26.02;68.74
76291;DHT22;65100;46.884;17.410;2023-07-30T13:28:49;26.45;69.19
76291;DHT22;65100;46.884;17.410;2023-07-30T13:31:15;26.62;68.18
76291;DHT22;65100;46.884;17.410;2023-07-30T13:33:40;26.48;66.24
76291;DHT22;65100;46.884;17.410;2023-07-30T13:36:06;26.26;67.66
76291;DHT22;65100;46.884;17.410;2023-07-30T13:38:31;26.48;68.07
76291;DHT22;65100;46.884;17.410;2023-07-30T13:40:57;26.15;67.62
76291;DHT22;65100;46.884;17.410;2023-07-30T13:43:22;26.18;68.50
76291;DHT22;65100;46.884;17.410;2023-07-30T13:45:48;26.29;67.97
76291;DHT22;65100;46.884;17.410;2023-07-30T13:48:16;26.09;67.15
76291;DHT22;65100;46.884;17.410;2023-07-30T13:50:41;26.26;66.58
76291;DHT22;65100;46.884;17.410;2023-07-30T13:53:07;26.49;67.82
76291;DHT22;65100;46.884;17.410;2023-07-30T13:55:32;26.46;65.09
76291;DHT22;65100;46.884;17.410;2023-07-30T13:57:58;26.25;67.30
76291;DHT22;65100;46.884;17.410;2023-07-30T14:00:23;26.38;68.51
76291;DHT22;65100;46.884;17.410;2023-07-30T14:02:49;26.35;66.89
76291;DHT22;65100;46.884;17.410;2023-07-30T14:05:16;26.49;67.14
76291;DHT22;65100;46.884;17.410;2023-07-30T14:07:42;26.50;65.85
76291;DHT22;65100;46.884;17.410;2023-07-30T14:10:08;26.35;67.19
76291;DHT22;65100;46.884;17.410;2023-07-30T14:12:34;26.69;66.87
76291;DHT22;65100;46.884;17.410;2023-07-30T14:14:59;26.86;66.24
76291;DHT22;65100;46.884;17.410;2023-07-30T14:17:25;26.86;63.22
76291;DHT22;65100;46.884;17.410;2023-07-30T14:19:50;26.78;63.60
76291;DHT22;65100;46.884;17.410;2023-07-30T14:22:15;26.40;64.51
76291;DHT22;65100;46.884;17.410;2023-07-30T14:24:41;26.60;66.07
76291;DHT22;65100;46.884;17.410;2023-07-30T14:27:08;26.66;62.36
76291;DHT22;65100;46.884;17.410;2023-07-30T14:29:34;26.50;64.26
76291;DHT22;65100;46.884;17.410;2023-07-30T14:32:00;26.46;65.20
76291;DHT22;65100;46.884;17.410;2023-07-30T14:34:25;26.72;66.12
76291;DHT22;65100;46.884;17.410;2023-07-30T14:36:51;26.70;63.29
76291;DHT22;65100;46.884;17.410;2023-07-30T14:39:16;26.52;65.75
76291;DHT22;65100;46.884;17.410;2023-07-30T14:41:41;26.63;64.30
76291;DHT22;65100;46.884;17.410;2023-07-30T14:44:07;26.83;66.07
76291;DHT22;65100;46.884;17.410;2023-07-30T14:46:32;26.86;62.87
76291;DHT22;65100;46.884;17.410;2023-07-30T14:48:58;26.90;65.24
76291;DHT22;65100;46.884;17.410;2023-07-30T14:51:23;26.96;65.54
76291;DHT22;65100;46.884;17.410;2023-07-30T14:53:49;26.72;64.34
76291;DHT22;65100;46.884;17.410;2023-07-30T14:56:14;26.92;65.83
76291;DHT22;65100;46.884;17.410;2023-07-30T14:58:41;27.02;64.87
76291;DHT22;65100;46.884;17.410;2023-07-30T15:01:06;26.73;64.15
76291;DHT22;65100;46.884;17.410;2023-07-30T15:03:32;26.80;62.52
76291;DHT22;65100;46.884;17.410;2023-07-30T15:05:57;26.94;64.05
76291;DHT22;65100;46.884;17.410;2023-07-30T15:08:23;26.84;64.71
76291;DHT22;65100;46.884;17.410;2023-07-30T15:10:48;26.79;63.97
76291;DHT22;65100;46.884;17.410;2023-07-30T15:13:14;26.75;63.89